createdAt,value
2022-08-20T00:00:34.523Z,25.38
2022-08-20T00:03:18.209Z,25.37
2022-08-20T00:05:56.003Z,25.36
2022-08-20T00:08:26.299Z,25.36
2022-08-20T00:10:56.770Z,25.35
2022-08-20T00:13:30.189Z,25.34
2022-08-20T00:15:59.806Z,25.33
2022-08-20T00:18:29.563Z,25.32
2022-08-20T00:21:01.158Z,25.30
2022-08-20T00:23:30.658Z,25.29
2022-08-20T00:26:00.060Z,25.29
2022-08-20T00:28:29.308Z,25.28
2022-08-20T00:30:58.904Z,25.27
2022-08-20T00:33:28.204Z,25.27
2022-08-20T00:36:06.463Z,25.26
2022-08-20T00:38:37.477Z,25.27
2022-08-20T00:41:08.622Z,25.26
2022-08-20T00:43:43.303Z,25.27
2022-08-20T00:46:15.096Z,25.27
2022-08-20T00:48:47.836Z,25.27
2022-08-20T00:51:26.118Z,25.25
2022-08-20T00:53:57.943Z,25.24
2022-08-20T00:56:27.793Z,25.23
2022-08-20T00:58:57.591Z,25.24
2022-08-20T01:01:26.922Z,25.21
2022-08-20T01:03:58.276Z,25.17
2022-08-20T01:06:29.517Z,25.16
2022-08-20T01:09:02.277Z,25.14
2022-08-20T01:11:37.922Z,25.10
2022-08-20T01:14:23.710Z,25.10
2022-08-20T01:16:56.197Z,25.09
2022-08-20T01:19:31.993Z,25.07
2022-08-20T01:22:24.975Z,25.05
2022-08-20T01:24:58.588Z,25.04
2022-08-20T01:27:29.955Z,25.02
2022-08-20T01:30:00.912Z,25.01
2022-08-20T01:32:35.676Z,24.99
2022-08-20T01:35:05.980Z,24.97
2022-08-20T01:37:35.314Z,24.95
2022-08-20T01:40:09.318Z,24.94
2022-08-20T01:42:58.839Z,24.91
2022-08-20T01:45:30.939Z,24.88
2022-08-20T01:48:00.381Z,24.84
2022-08-20T01:50:33.986Z,24.84
2022-08-20T01:53:12.646Z,24.81
2022-08-20T01:55:42.151Z,24.78
2022-08-20T01:58:12.926Z,24.75
2022-08-20T02:00:42.572Z,24.73
2022-08-20T02:03:11.958Z,24.70
2022-08-20T02:05:41.280Z,24.69
2022-08-20T02:08:10.816Z,24.68
2022-08-20T02:10:40.877Z,24.67
2022-08-20T02:13:11.681Z,24.66
2022-08-20T02:15:43.148Z,24.63
2022-08-20T02:18:14.905Z,24.62
2022-08-20T02:20:46.192Z,24.62
2022-08-20T02:23:16.319Z,24.59
2022-08-20T02:25:48.717Z,24.57
2022-08-20T02:28:20.927Z,24.55
2022-08-20T02:30:52.929Z,24.53
2022-08-20T02:33:24.616Z,24.50
2022-08-20T02:35:56.894Z,24.48
2022-08-20T02:38:26.615Z,24.45
2022-08-20T02:40:56.665Z,24.40
2022-08-20T02:43:27.294Z,24.36
2022-08-20T02:45:56.944Z,24.34
2022-08-20T02:48:26.698Z,24.30
2022-08-20T02:50:58.509Z,24.29
2022-08-20T02:53:29.641Z,24.25
2022-08-20T02:55:59.135Z,24.24
2022-08-20T02:58:30.451Z,24.22
2022-08-20T03:01:00.339Z,24.19
2022-08-20T03:03:29.890Z,24.16
2022-08-20T03:06:00.437Z,24.15
2022-08-20T03:08:30.503Z,24.11
2022-08-20T03:11:00.362Z,24.11
2022-08-20T03:13:31.044Z,24.09
2022-08-20T03:16:02.319Z,24.08
2022-08-20T03:18:35.211Z,24.06
2022-08-20T03:21:06.644Z,24.06
2022-08-20T03:23:40.552Z,24.05
2022-08-20T03:26:12.926Z,24.01
2022-08-20T03:28:44.409Z,24.00
2022-08-20T03:31:15.345Z,23.99
2022-08-20T03:33:52.884Z,23.97
2022-08-20T03:36:28.359Z,23.94
2022-08-20T03:38:59.175Z,23.91
2022-08-20T03:41:29.094Z,23.91
2022-08-20T03:43:59.912Z,23.91
2022-08-20T03:46:29.532Z,23.89
2022-08-20T03:49:00.350Z,23.86
2022-08-20T03:51:30.847Z,23.86
2022-08-20T03:54:00.771Z,23.86
2022-08-20T03:56:30.373Z,23.85
2022-08-20T03:59:01.095Z,23.84
2022-08-20T04:01:45.752Z,23.84
2022-08-20T04:04:16.346Z,23.82
2022-08-20T04:06:47.538Z,23.84
2022-08-20T04:09:17.154Z,23.84
2022-08-20T04:11:46.356Z,23.82
2022-08-20T04:14:18.591Z,23.80
2022-08-20T04:16:49.256Z,23.80
2022-08-20T04:19:18.744Z,23.78
2022-08-20T04:21:48.967Z,23.76
2022-08-20T04:24:29.206Z,23.74
2022-08-20T04:27:02.990Z,23.73
2022-08-20T04:29:35.611Z,23.72
2022-08-20T04:32:06.296Z,23.70
2022-08-20T04:34:37.016Z,23.69
2022-08-20T04:37:06.536Z,23.67
2022-08-20T04:40:07.050Z,23.66
2022-08-20T04:42:39.150Z,23.65
2022-08-20T04:45:11.182Z,23.65
2022-08-20T04:47:40.451Z,23.64
2022-08-20T04:50:11.382Z,23.62
2022-08-20T04:52:41.023Z,23.60
2022-08-20T04:55:11.050Z,23.57
2022-08-20T04:57:40.334Z,23.55
2022-08-20T05:00:16.130Z,23.56
2022-08-20T05:02:45.867Z,23.57
2022-08-20T05:05:15.260Z,23.57
2022-08-20T05:07:47.017Z,23.58
2022-08-20T05:10:18.347Z,23.57
2022-08-20T05:12:56.755Z,23.57
2022-08-20T05:15:28.503Z,23.53
2022-08-20T05:18:00.689Z,23.50
2022-08-20T05:20:32.686Z,23.51
2022-08-20T05:23:03.330Z,23.53
2022-08-20T05:25:33.637Z,23.55
2022-08-20T05:28:07.540Z,23.57
2022-08-20T05:30:40.592Z,23.57
2022-08-20T05:33:11.127Z,23.57
2022-08-20T05:35:41.618Z,23.55
2022-08-20T05:38:14.290Z,23.55
2022-08-20T05:40:44.446Z,23.55
2022-08-20T05:43:14.199Z,23.53
2022-08-20T05:45:45.646Z,23.55
2022-08-20T05:48:17.887Z,23.58
2022-08-20T05:50:50.498Z,23.60
2022-08-20T05:53:21.844Z,23.55
2022-08-20T05:55:51.251Z,23.54
2022-08-20T05:58:24.326Z,23.55
2022-08-20T06:00:55.899Z,23.57
2022-08-20T06:03:42.770Z,23.58
2022-08-20T06:06:18.043Z,23.60
2022-08-20T06:09:02.233Z,23.62
2022-08-20T06:11:35.151Z,23.62
2022-08-20T06:14:06.827Z,23.62
2022-08-20T06:16:37.853Z,23.63
2022-08-20T06:19:11.279Z,23.64
2022-08-20T06:21:41.161Z,23.64
2022-08-20T06:24:11.478Z,23.65
2022-08-20T06:26:40.555Z,23.64
2022-08-20T06:29:09.924Z,23.63
2022-08-20T06:31:40.989Z,23.67
2022-08-20T06:34:10.407Z,23.68
2022-08-20T06:36:39.682Z,23.69
2022-08-20T06:39:09.231Z,23.72
2022-08-20T06:41:38.509Z,23.75
2022-08-20T06:44:08.868Z,23.77
2022-08-20T06:46:40.145Z,23.76
2022-08-20T06:49:10.059Z,23.78
2022-08-20T06:51:40.111Z,23.81
2022-08-20T06:54:10.816Z,23.84
2022-08-20T06:56:40.377Z,23.84
2022-08-20T06:59:09.669Z,23.84
2022-08-20T07:01:40.533Z,23.85
2022-08-20T07:04:10.924Z,23.84
2022-08-20T07:06:40.498Z,23.83
2022-08-20T07:09:09.871Z,23.84
2022-08-20T07:11:39.440Z,23.85
2022-08-20T07:14:08.774Z,23.86
2022-08-20T07:16:39.539Z,23.87
2022-08-20T07:19:09.518Z,23.86
2022-08-20T07:21:38.935Z,23.86
2022-08-20T07:24:09.723Z,23.87
2022-08-20T07:26:39.326Z,23.89
2022-08-20T07:29:08.645Z,23.89
2022-08-20T07:32:11.563Z,23.89
2022-08-20T07:34:44.661Z,23.90
2022-08-20T07:37:14.291Z,23.89
2022-08-20T07:39:43.834Z,23.90
2022-08-20T07:42:13.123Z,23.92
2022-08-20T07:44:42.377Z,23.93
2022-08-20T07:47:13.579Z,23.94
2022-08-20T07:49:43.032Z,23.95
2022-08-20T07:52:13.245Z,23.95
2022-08-20T07:54:43.377Z,23.98
2022-08-20T07:57:12.677Z,23.99
2022-08-20T07:59:42.178Z,24.00
2022-08-20T08:02:12.955Z,24.02
2022-08-20T08:04:42.556Z,24.05
2022-08-20T08:07:11.839Z,24.08
2022-08-20T08:09:41.455Z,24.16
2022-08-20T08:12:12.166Z,24.21
2022-08-20T08:14:43.113Z,24.24
2022-08-20T08:17:16.658Z,24.28
2022-08-20T08:19:50.365Z,24.29
2022-08-20T08:22:21.170Z,24.31
2022-08-20T08:24:57.464Z,24.33
2022-08-20T08:27:27.356Z,24.33
2022-08-20T08:29:56.657Z,24.33
2022-08-20T08:32:27.613Z,24.37
2022-08-20T08:34:57.202Z,24.37
2022-08-20T08:37:30.511Z,24.35
2022-08-20T08:40:01.485Z,24.39
2022-08-20T08:42:43.273Z,24.41
2022-08-20T08:45:16.036Z,24.42
2022-08-20T08:47:47.429Z,24.45
2022-08-20T08:50:38.514Z,24.47
2022-08-20T08:53:19.835Z,24.55
2022-08-20T08:55:49.521Z,24.59
2022-08-20T08:58:18.809Z,24.66
2022-08-20T09:00:56.143Z,24.66
2022-08-20T09:03:32.783Z,24.70
2022-08-20T09:06:03.650Z,24.74
2022-08-20T09:08:43.901Z,24.81
2022-08-20T09:11:13.206Z,24.88
2022-08-20T09:13:43.405Z,24.91
2022-08-20T09:16:13.126Z,24.97
2022-08-20T09:18:44.134Z,24.99
2022-08-20T09:21:14.548Z,25.02
2022-08-20T09:23:44.071Z,25.07
2022-08-20T09:26:13.675Z,25.10
2022-08-20T09:28:42.942Z,25.10
2022-08-20T09:31:12.349Z,25.15
2022-08-20T09:33:43.037Z,25.17
2022-08-20T09:36:31.746Z,25.20
2022-08-20T09:39:02.761Z,25.25
2022-08-20T09:41:33.701Z,25.28
2022-08-20T09:44:06.833Z,25.33
2022-08-20T09:46:36.413Z,25.32
2022-08-20T09:49:07.080Z,25.32
2022-08-20T09:51:40.266Z,25.33
2022-08-20T09:54:09.542Z,25.32
2022-08-20T09:56:39.063Z,25.33
2022-08-20T09:59:08.301Z,25.31
2022-08-20T10:01:37.683Z,25.32
2022-08-20T10:04:08.698Z,25.32
2022-08-20T10:06:41.988Z,25.39
2022-08-20T10:09:11.798Z,25.43
2022-08-20T10:11:41.355Z,25.46
2022-08-20T10:14:10.752Z,25.50
2022-08-20T10:16:40.216Z,25.55
2022-08-20T10:19:11.155Z,25.59
2022-08-20T10:21:40.471Z,25.72
2022-08-20T10:24:10.005Z,25.81
2022-08-20T10:26:40.563Z,25.92
2022-08-20T10:29:09.934Z,26.04
2022-08-20T10:31:39.458Z,26.13
2022-08-20T10:34:10.249Z,26.20
2022-08-20T10:36:39.756Z,26.29
2022-08-20T10:39:09.096Z,26.35
2022-08-20T10:41:39.244Z,26.41
2022-08-20T10:44:09.401Z,26.45
2022-08-20T10:46:38.698Z,26.54
2022-08-20T10:49:08.320Z,26.68
2022-08-20T10:51:39.961Z,26.77
2022-08-20T10:54:12.282Z,26.87
2022-08-20T10:56:43.079Z,26.97
2022-08-20T10:59:12.681Z,27.05
2022-08-20T11:01:41.981Z,27.07
2022-08-20T11:04:11.366Z,27.05
2022-08-20T11:06:42.303Z,27.16
2022-08-20T11:09:11.676Z,27.23
2022-08-20T11:11:41.017Z,27.48
2022-08-20T11:14:10.373Z,27.95
2022-08-20T11:16:39.731Z,28.26
2022-08-20T11:19:09.006Z,28.18
2022-08-20T11:21:38.621Z,28.68
2022-08-20T11:24:09.573Z,28.72
2022-08-20T11:26:39.026Z,28.52
2022-08-20T11:29:08.309Z,28.39
2022-08-20T11:31:37.983Z,28.42
2022-08-20T11:34:12.084Z,28.46
2022-08-20T11:36:42.971Z,28.40
2022-08-20T11:39:14.186Z,28.28
2022-08-20T11:41:45.825Z,28.25
2022-08-20T11:44:20.775Z,28.26
2022-08-20T11:46:51.239Z,28.24
2022-08-20T11:49:20.657Z,28.18
2022-08-20T11:51:50.337Z,28.21
2022-08-20T11:54:21.418Z,28.23
2022-08-20T11:56:51.351Z,28.21
2022-08-20T11:59:20.981Z,28.24
2022-08-20T12:02:03.128Z,28.25
2022-08-20T12:04:33.856Z,28.26
2022-08-20T12:07:11.661Z,28.25
2022-08-20T12:09:51.381Z,28.23
2022-08-20T12:12:23.419Z,28.15
2022-08-20T12:14:53.449Z,28.08
2022-08-20T12:17:27.616Z,28.03
2022-08-20T12:19:58.970Z,27.99
2022-08-20T12:22:28.550Z,27.94
2022-08-20T12:25:00.152Z,27.90
2022-08-20T12:27:32.247Z,27.86
2022-08-20T12:30:03.641Z,27.79
2022-08-20T12:32:33.965Z,27.77
2022-08-20T12:35:03.869Z,27.74
2022-08-20T12:37:33.125Z,27.71
2022-08-20T12:40:07.016Z,27.64
2022-08-20T12:42:37.321Z,27.62
2022-08-20T12:45:08.364Z,27.58
2022-08-20T12:47:41.570Z,27.56
2022-08-20T12:50:18.195Z,27.50
2022-08-20T12:52:48.203Z,27.49
2022-08-20T12:55:26.212Z,27.50
2022-08-20T12:57:59.518Z,27.42
2022-08-20T13:00:31.233Z,27.39
2022-08-20T13:03:03.693Z,27.25
2022-08-20T13:05:33.985Z,26.81
2022-08-20T13:08:04.529Z,26.02
2022-08-20T13:10:37.255Z,25.57
2022-08-20T13:13:07.023Z,25.32
2022-08-20T13:15:36.590Z,25.34
2022-08-20T13:18:07.021Z,25.41
2022-08-20T13:20:36.870Z,25.49
2022-08-20T13:23:07.228Z,25.38
2022-08-20T13:25:37.945Z,25.32
2022-08-20T13:28:08.118Z,25.36
2022-08-20T13:30:38.818Z,25.41
2022-08-20T13:33:08.526Z,25.44
2022-08-20T13:35:38.058Z,25.45
2022-08-20T13:38:07.499Z,25.44
2022-08-20T13:40:38.562Z,25.46
2022-08-20T13:43:07.966Z,25.47
2022-08-20T13:45:42.933Z,25.49
2022-08-20T13:48:15.184Z,25.49
2022-08-20T13:50:46.835Z,25.50
2022-08-20T13:53:17.733Z,25.52
2022-08-20T13:55:49.317Z,25.55
2022-08-20T13:58:19.288Z,25.60
2022-08-20T14:00:49.057Z,25.57
2022-08-20T14:03:19.752Z,25.58
2022-08-20T14:05:50.241Z,25.56
2022-08-20T14:08:21.318Z,25.53
2022-08-20T14:10:53.153Z,25.50
2022-08-20T14:13:27.859Z,25.50
2022-08-20T14:15:57.749Z,25.51
2022-08-20T14:18:27.413Z,25.48
2022-08-20T14:20:56.797Z,25.46
2022-08-20T14:23:26.719Z,25.46
2022-08-20T14:25:57.922Z,25.48
2022-08-20T14:28:27.425Z,25.45
2022-08-20T14:30:57.012Z,25.38
2022-08-20T14:33:29.836Z,25.36
2022-08-20T14:35:59.322Z,25.37
2022-08-20T14:38:28.672Z,25.32
2022-08-20T14:40:59.690Z,25.33
2022-08-20T14:43:28.986Z,25.35
2022-08-20T14:45:58.753Z,25.34
2022-08-20T14:48:28.367Z,25.33
2022-08-20T14:50:59.584Z,25.31
2022-08-20T14:53:29.905Z,25.31
2022-08-20T14:56:03.762Z,25.28
2022-08-20T14:58:33.643Z,25.25
2022-08-20T15:01:03.158Z,25.23
2022-08-20T15:03:32.485Z,25.19
2022-08-20T15:06:02.102Z,25.16
2022-08-20T15:08:31.621Z,25.14
2022-08-20T15:11:02.367Z,25.12
2022-08-20T15:13:41.395Z,25.11
2022-08-20T15:16:10.859Z,25.11
2022-08-20T15:18:43.467Z,25.11
2022-08-20T15:21:13.163Z,25.10
2022-08-20T15:23:42.416Z,25.09
2022-08-20T15:26:13.197Z,25.05
2022-08-20T15:28:42.605Z,25.04
2022-08-20T15:31:12.759Z,25.04
2022-08-20T15:33:43.253Z,25.04
2022-08-20T15:36:13.002Z,25.04
2022-08-20T15:38:42.388Z,25.05
2022-08-20T15:41:13.303Z,25.03
2022-08-20T15:43:43.122Z,25.02
2022-08-20T15:46:12.606Z,25.03
2022-08-20T15:48:49.430Z,25.04
2022-08-20T15:51:24.353Z,25.03
2022-08-20T15:54:00.490Z,25.03
2022-08-20T15:56:54.146Z,25.06
2022-08-20T15:59:40.712Z,25.05
2022-08-20T16:02:35.771Z,25.05
2022-08-20T16:05:24.609Z,25.07
2022-08-20T16:08:05.660Z,25.09
2022-08-20T16:10:46.764Z,25.06
2022-08-20T16:13:30.926Z,25.07
2022-08-20T16:16:05.080Z,25.07
2022-08-20T16:18:42.553Z,25.05
2022-08-20T16:21:29.861Z,25.09
2022-08-20T16:23:59.735Z,25.09
2022-08-20T16:26:53.544Z,25.12
2022-08-20T16:29:29.742Z,25.11
2022-08-20T16:32:04.807Z,25.08
2022-08-20T16:34:47.505Z,25.04
2022-08-20T16:37:26.392Z,25.01
2022-08-20T16:40:04.217Z,25.00
2022-08-20T16:42:38.746Z,24.98
2022-08-20T16:45:20.096Z,24.96
2022-08-20T16:47:51.273Z,24.93
2022-08-20T16:50:24.950Z,24.91
2022-08-20T16:52:54.834Z,24.89
2022-08-20T16:55:25.493Z,24.85
2022-08-20T16:57:56.039Z,24.83
2022-08-20T17:00:35.130Z,24.81
2022-08-20T17:03:06.983Z,24.80
2022-08-20T17:05:47.773Z,24.77
2022-08-20T17:08:25.937Z,24.76
2022-08-20T17:11:01.345Z,24.73
2022-08-20T17:13:32.991Z,24.72
2022-08-20T17:16:07.251Z,24.70
2022-08-20T17:18:39.432Z,24.69
2022-08-20T17:21:15.743Z,24.67
2022-08-20T17:23:56.447Z,24.66
2022-08-20T17:26:30.921Z,24.64
2022-08-20T17:29:13.504Z,24.62
2022-08-20T17:31:48.815Z,24.62
2022-08-20T17:34:20.820Z,24.58
2022-08-20T17:36:53.815Z,24.54
2022-08-20T17:39:25.170Z,24.50
2022-08-20T17:42:04.064Z,24.47
2022-08-20T17:44:36.896Z,24.44
2022-08-20T17:47:12.900Z,24.43
2022-08-20T17:49:57.433Z,24.40
2022-08-20T17:52:40.552Z,24.37
2022-08-20T17:55:12.008Z,24.33
2022-08-20T17:57:45.186Z,24.32
2022-08-20T18:00:17.746Z,24.26
2022-08-20T18:02:48.873Z,24.23
2022-08-20T18:05:21.605Z,24.20
2022-08-20T18:08:20.475Z,24.18
2022-08-20T18:10:58.568Z,24.15
2022-08-20T18:13:47.935Z,24.11
2022-08-20T18:16:26.685Z,24.09
2022-08-20T18:19:00.765Z,24.08
2022-08-20T18:22:05.203Z,24.05
2022-08-20T18:24:42.118Z,24.03
2022-08-20T18:27:16.136Z,24.03
2022-08-20T18:29:52.979Z,24.02
2022-08-20T18:32:29.357Z,24.02
2022-08-20T18:35:12.967Z,24.01
2022-08-20T18:37:43.377Z,23.99
2022-08-20T18:40:20.617Z,23.99
2022-08-20T18:42:50.136Z,23.97
2022-08-20T18:45:30.648Z,23.96
2022-08-20T18:48:01.190Z,23.94
2022-08-20T18:50:44.216Z,23.93
2022-08-20T18:53:19.961Z,23.89
2022-08-20T18:56:02.413Z,23.87
2022-08-20T18:58:34.365Z,23.83
2022-08-20T19:01:09.029Z,23.79
2022-08-20T19:03:45.622Z,23.77
2022-08-20T19:06:38.360Z,23.74
2022-08-20T19:09:17.968Z,23.73
2022-08-20T19:11:57.685Z,23.69
2022-08-20T19:14:50.633Z,23.67
2022-08-20T19:17:26.683Z,23.64
2022-08-20T19:20:01.822Z,23.62
2022-08-20T19:22:36.013Z,23.60
2022-08-20T19:25:05.933Z,23.57
2022-08-20T19:27:35.878Z,23.56
2022-08-20T19:30:06.737Z,23.51
2022-08-20T19:32:38.692Z,23.49
2022-08-20T19:35:17.727Z,23.47
2022-08-20T19:37:51.173Z,23.46
2022-08-20T19:40:28.156Z,23.44
2022-08-20T19:43:00.581Z,23.40
2022-08-20T19:45:33.360Z,23.37
2022-08-20T19:48:28.859Z,23.34
2022-08-20T19:51:07.591Z,23.30
2022-08-20T19:53:45.582Z,23.27
2022-08-20T19:56:18.826Z,23.24
2022-08-20T19:58:58.625Z,23.21
2022-08-20T20:01:28.500Z,23.20
2022-08-20T20:04:01.256Z,23.17
2022-08-20T20:06:33.884Z,23.15
2022-08-20T20:09:09.027Z,23.14
2022-08-20T20:11:43.159Z,23.11
2022-08-20T20:14:16.511Z,23.09
2022-08-20T20:16:50.538Z,23.09
2022-08-20T20:19:28.618Z,23.08
2022-08-20T20:22:10.396Z,23.06
2022-08-20T20:25:02.641Z,23.04
2022-08-20T20:27:33.197Z,23.04
2022-08-20T20:30:05.756Z,23.03
2022-08-20T20:32:35.436Z,23.01
2022-08-20T20:35:09.596Z,22.99
2022-08-20T20:37:49.606Z,22.98
2022-08-20T20:40:27.750Z,22.96
2022-08-20T20:43:05.826Z,22.94
2022-08-20T20:45:41.285Z,22.91
2022-08-20T20:48:19.387Z,22.87
2022-08-20T20:50:50.983Z,22.85
2022-08-20T20:53:47.355Z,22.83
2022-08-20T20:56:33.495Z,22.81
2022-08-20T20:59:06.832Z,22.79
2022-08-20T21:01:48.719Z,22.78
2022-08-20T21:04:22.271Z,22.77
2022-08-20T21:06:53.485Z,22.77
2022-08-20T21:09:25.065Z,22.75
2022-08-20T21:11:55.966Z,22.73
2022-08-20T21:14:25.532Z,22.73
2022-08-20T21:16:55.268Z,22.70
2022-08-20T21:19:25.127Z,22.70
2022-08-20T21:21:55.330Z,22.68
2022-08-20T21:24:28.926Z,22.68
2022-08-20T21:27:02.366Z,22.67
2022-08-20T21:29:33.252Z,22.66
2022-08-20T21:32:02.963Z,22.64
2022-08-20T21:34:32.491Z,22.64
2022-08-20T21:37:01.816Z,22.64
2022-08-20T21:39:31.343Z,22.60
2022-08-20T21:42:22.942Z,22.55
2022-08-20T21:44:55.763Z,22.52
2022-08-20T21:47:25.154Z,22.52
2022-08-20T21:49:55.317Z,22.51
2022-08-20T21:52:24.888Z,22.51
2022-08-20T21:54:54.500Z,22.50
2022-08-20T21:57:27.396Z,22.51
2022-08-20T21:59:58.504Z,22.50
2022-08-20T22:02:28.274Z,22.49
2022-08-20T22:04:57.792Z,22.47
2022-08-20T22:07:27.305Z,22.45
2022-08-20T22:09:56.588Z,22.43
2022-08-20T22:12:27.851Z,22.42
2022-08-20T22:14:57.387Z,22.41
2022-08-20T22:17:26.896Z,22.41
2022-08-20T22:19:56.283Z,22.40
2022-08-20T22:22:25.639Z,22.39
2022-08-20T22:24:55.205Z,22.40
2022-08-20T22:27:24.453Z,22.40
2022-08-20T22:29:56.093Z,22.39
2022-08-20T22:32:33.473Z,22.38
2022-08-20T22:35:15.265Z,22.38
2022-08-20T22:37:44.792Z,22.36
2022-08-20T22:40:14.397Z,22.36
2022-08-20T22:42:43.722Z,22.36
2022-08-20T22:45:15.083Z,22.34
2022-08-20T22:47:45.116Z,22.33
2022-08-20T22:50:15.753Z,22.35
2022-08-20T22:52:45.443Z,22.34
2022-08-20T22:55:15.115Z,22.34
2022-08-20T22:57:44.326Z,22.31
2022-08-20T23:00:19.000Z,22.30
2022-08-20T23:02:52.937Z,22.30
2022-08-20T23:05:26.381Z,22.31
2022-08-20T23:07:57.542Z,22.28
2022-08-20T23:10:29.001Z,22.28
2022-08-20T23:12:59.109Z,22.29
2022-08-20T23:15:30.134Z,22.27
2022-08-20T23:18:04.096Z,22.25
2022-08-20T23:20:33.412Z,22.22
2022-08-20T23:23:02.923Z,22.21
2022-08-20T23:25:32.337Z,22.19
2022-08-20T23:28:04.142Z,22.17
2022-08-20T23:30:35.796Z,22.16
2022-08-20T23:33:06.056Z,22.16
2022-08-20T23:35:38.822Z,22.16
2022-08-20T23:38:09.093Z,22.14
2022-08-20T23:40:39.495Z,22.15
2022-08-20T23:43:08.978Z,22.16
2022-08-20T23:45:41.349Z,22.16
2022-08-20T23:48:10.917Z,22.17
2022-08-20T23:50:40.338Z,22.15
2022-08-20T23:53:09.667Z,22.16
2022-08-20T23:55:39.388Z,22.15
2022-08-20T23:58:09.208Z,22.15
